Gonzales, Louisiana
Current Conditions -  °F | °C
As of 1:35 PM on Thursday 18 Dec 2014 (Local Time) from KL38 Reporting Station
Overcast Overcast  
Wind Chill: 67°   Ceiling: 4900
Heat Index: 67°   Visibility: 10mi
Dew Point: 56°   Wind: 7mph
Humidity: 66%   Direction: 140°SE
Pressure: 30.08"   Gusts: NA
Location:  30.24°N, 90.92°W
Report Text: KL38 181935Z AUTO 14006KT 10SM BKN049 OVC095 20/13 A3008 RMK AO2 T01970132
Loading
Personal Weather Stations






























Interactive Weather Map New forecast layout! Learn more

10-Day Weather Forecast

Advertisements
Track Severe Weather on mobile